Time;durP1;ratioP1;P1;durP2;ratioP2;P2;SDS_P1;SDS_P2;PMS_P1;PMS_P2;Temp;Humidity;BMP_temperature;BMP_pressure;BME280_temperature;BME280_humidity;BME280_pressure;Samples;Min_cycle;Max_cycle;Signal;HPM_P1;HPM_P2
2023/06/21 00:01:51;;;;;;;30.00;21.38;;;21.40;99.90;;;;;;5090201;28;20043;-69
2023/06/21 00:04:16;;;;;;;30.40;21.98;;;20.80;99.90;;;;;;5062114;28;20451;-68
2023/06/21 00:06:48;;;;;;;31.10;22.88;;;21.10;99.90;;;;;;5084104;28;20124;-69
2023/06/21 00:09:14;;;;;;;30.70;22.13;;;21.30;99.90;;;;;;5089309;28;20123;-69
2023/06/21 00:11:41;;;;;;;32.97;23.88;;;;;;;;;;5078080;28;20128;-68
2023/06/21 00:14:07;;;;;;;32.58;23.75;;;20.30;99.90;;;;;;5074818;28;20036;-68
2023/06/21 00:16:33;;;;;;;34.28;24.00;;;20.40;99.90;;;;;;5082597;28;20040;-68
2023/06/21 00:18:59;;;;;;;35.92;23.33;;;;;;;;;;5075902;28;20075;-69
2023/06/21 00:21:24;;;;;;;38.55;23.35;;;20.90;99.90;;;;;;5085704;28;20433;-68
2023/06/21 00:23:50;;;;;;;35.10;23.38;;;20.60;99.90;;;;;;5075820;28;20075;-69
2023/06/21 00:26:16;;;;;;;35.60;23.30;;;20.90;99.90;;;;;;5078776;28;20123;-69
2023/06/21 00:28:42;;;;;;;33.60;21.45;;;;;;;;;;5082803;28;20472;-68
2023/06/21 00:31:10;;;;;;;33.15;23.58;;;20.70;99.90;;;;;;5083514;28;20083;-69
2023/06/21 00:33:37;;;;;;;32.45;21.67;;;20.90;99.90;;;;;;5073452;28;20067;-69
2023/06/21 00:36:03;;;;;;;35.13;22.27;;;21.50;99.90;;;;;;5090714;28;20051;-69
2023/06/21 00:38:34;;;;;;;29.75;21.98;;;21.10;99.90;;;;;;5085908;28;20040;-69
2023/06/21 00:41:07;;;;;;;33.78;23.02;;;21.40;99.90;;;;;;5063321;28;20036;-69
2023/06/21 00:43:33;;;;;;;36.80;23.02;;;21.50;99.90;;;;;;5078097;28;20373;-69
2023/06/21 00:45:59;;;;;;;38.88;22.48;;;21.40;99.90;;;;;;5088166;28;20074;-68
2023/06/21 00:48:28;;;;;;;38.22;24.10;;;19.90;99.90;;;;;;5059766;28;20090;-69
2023/06/21 00:50:55;;;;;;;35.38;24.08;;;20.30;99.90;;;;;;5059325;28;20033;-69
2023/06/21 00:53:23;;;;;;;32.45;23.30;;;21.40;99.90;;;;;;5080618;28;20047;-69
2023/06/21 00:55:49;;;;;;;31.65;22.55;;;21.30;99.90;;;;;;5057484;28;20119;-69
2023/06/21 00:58:15;;;;;;;37.00;23.83;;;19.00;99.90;;;;;;5059773;28;20040;-68
2023/06/21 01:00:41;;;;;;;33.15;23.00;;;20.60;99.90;;;;;;5057425;28;20037;-69
2023/06/21 01:03:07;;;;;;;32.58;23.05;;;21.20;99.90;;;;;;5090673;28;20454;-69
2023/06/21 01:05:34;;;;;;;34.95;24.08;;;19.30;99.90;;;;;;5090915;28;20036;-68
2023/06/21 01:08:00;;;;;;;34.03;24.05;;;;;;;;;;5062039;28;20039;-69
2023/06/21 01:10:38;;;;;;;35.53;24.98;;;19.90;99.90;;;;;;5079056;28;20473;-69
2023/06/21 01:13:06;;;;;;;35.95;24.42;;;19.70;99.90;;;;;;5059505;28;20036;-69
2023/06/21 01:15:41;;;;;;;31.27;23.58;;;19.90;99.90;;;;;;5073799;28;20101;-69
2023/06/21 01:18:09;;;;;;;36.63;25.35;;;20.70;99.90;;;;;;5081900;28;20426;-69
2023/06/21 01:20:37;;;;;;;35.80;24.95;;;18.70;99.90;;;;;;5071503;28;20036;-68
2023/06/21 01:23:38;;;;;;;33.53;24.08;;;20.70;99.90;;;;;;5060625;28;20037;-68
2023/06/21 01:26:30;;;;;;;33.63;24.10;;;19.10;99.90;;;;;;5087669;28;20175;-68
2023/06/21 01:29:13;;;;;;;40.08;26.65;;;19.80;99.90;;;;;;5090876;28;20059;-69
2023/06/21 01:31:42;;;;;;;33.38;24.30;;;19.80;99.90;;;;;;5062229;28;20503;-68
2023/06/21 01:34:09;;;;;;;35.78;25.63;;;18.70;99.90;;;;;;5057125;28;20419;-69
2023/06/21 01:36:36;;;;;;;34.47;24.67;;;;;;;;;;5074906;28;20093;-68
2023/06/21 01:39:04;;;;;;;40.03;25.90;;;;;;;;;;5056606;28;20037;-68
2023/06/21 01:41:30;;;;;;;35.55;24.58;;;;;;;;;;5077320;28;20055;-69
2023/06/21 01:43:56;;;;;;;37.45;26.05;;;18.50;99.90;;;;;;5074412;28;20548;-69
2023/06/21 01:46:25;;;;;;;38.33;26.33;;;20.20;99.90;;;;;;5090153;28;20054;-69
2023/06/21 01:48:52;;;;;;;39.60;26.65;;;20.40;99.90;;;;;;5074409;28;20037;-69
2023/06/21 01:51:19;;;;;;;40.05;26.88;;;19.60;99.90;;;;;;5072948;28;21464;-69
2023/06/21 01:53:45;;;;;;;36.17;25.45;;;20.40;99.90;;;;;;5088690;28;20040;-69
2023/06/21 01:56:16;;;;;;;31.52;24.27;;;18.60;99.90;;;;;;5086073;28;20087;-69
2023/06/21 01:58:42;;;;;;;40.58;26.88;;;20.70;99.90;;;;;;5083351;28;20052;-68
2023/06/21 02:01:09;;;;;;;36.20;24.85;;;19.20;99.90;;;;;;5090983;28;20051;-68
2023/06/21 02:03:39;;;;;;;35.60;26.10;;;19.40;99.90;;;;;;5061216;28;20040;-69
2023/06/21 02:06:07;;;;;;;32.05;23.33;;;20.30;99.90;;;;;;5081806;28;20040;-69
2023/06/21 02:08:34;;;;;;;35.33;24.52;;;19.30;99.90;;;;;;5079415;28;20123;-69
2023/06/21 02:11:01;;;;;;;37.67;24.15;;;20.40;99.90;;;;;;5077478;28;20052;-68
2023/06/21 02:13:27;;;;;;;37.40;25.58;;;19.30;99.90;;;;;;5085403;28;20035;-69
2023/06/21 02:15:54;;;;;;;37.17;25.60;;;19.50;99.90;;;;;;5089336;28;20127;-69
2023/06/21 02:18:24;;;;;;;37.40;24.80;;;19.50;99.90;;;;;;5089746;28;20062;-67
2023/06/21 02:20:50;;;;;;;39.65;24.60;;;20.20;99.90;;;;;;5090438;28;20036;-69
2023/06/21 02:23:16;;;;;;;37.90;24.10;;;20.00;99.90;;;;;;5090639;28;20353;-69
2023/06/21 02:25:42;;;;;;;34.55;23.88;;;19.80;99.90;;;;;;5089131;28;20391;-69
2023/06/21 02:28:07;;;;;;;34.05;24.23;;;18.90;99.90;;;;;;5066883;28;20028;-69
2023/06/21 02:30:34;;;;;;;38.42;24.27;;;;;;;;;;5056193;28;20044;-69
2023/06/21 02:33:00;;;;;;;38.15;23.98;;;20.20;99.90;;;;;;5061170;28;20055;-69
2023/06/21 02:35:26;;;;;;;34.42;22.88;;;;;;;;;;5072873;28;20040;-70
2023/06/21 02:37:52;;;;;;;41.08;24.33;;;19.20;99.90;;;;;;5077045;28;20400;-69
2023/06/21 02:40:18;;;;;;;46.15;24.60;;;;;;;;;;5084815;28;20040;-69
2023/06/21 02:42:44;;;;;;;35.72;24.15;;;20.30;99.90;;;;;;5074822;28;20104;-69
2023/06/21 02:45:10;;;;;;;39.50;23.13;;;18.60;99.90;;;;;;5058141;28;20090;-69
2023/06/21 02:47:36;;;;;;;33.50;21.83;;;18.20;99.90;;;;;;5073846;28;20511;-72
2023/06/21 02:50:03;;;;;;;35.40;23.88;;;20.20;99.90;;;;;;5084000;28;20040;-72
2023/06/21 02:52:29;;;;;;;30.90;22.13;;;20.00;99.90;;;;;;5071851;28;20049;-72
2023/06/21 02:54:55;;;;;;;38.40;22.02;;;17.90;99.90;;;;;;5071801;28;20036;-72
2023/06/21 02:57:21;;;;;;;36.28;22.08;;;;;;;;;;5082555;28;20032;-72
2023/06/21 02:59:48;;;;;;;40.40;23.48;;;17.90;99.90;;;;;;5088584;28;20031;-72
2023/06/21 03:02:16;;;;;;;35.33;21.85;;;20.20;99.90;;;;;;5074096;28;20072;-72
2023/06/21 03:04:43;;;;;;;35.17;22.73;;;18.80;99.90;;;;;;5087185;28;20036;-72
2023/06/21 03:07:09;;;;;;;31.30;21.25;;;18.20;99.90;;;;;;5090190;28;20032;-70
2023/06/21 03:09:34;;;;;;;30.73;20.35;;;17.90;99.90;;;;;;5078422;28;20396;-70
2023/06/21 03:12:07;;;;;;;31.02;20.23;;;18.10;99.90;;;;;;5079164;28;20049;-71
2023/06/21 03:14:37;;;;;;;30.33;19.80;;;19.00;99.90;;;;;;5081054;28;20495;-71
2023/06/21 03:17:04;;;;;;;34.05;21.05;;;18.10;99.90;;;;;;5062007;28;20032;-72
2023/06/21 03:19:30;;;;;;;34.15;19.90;;;;;;;;;;5089622;28;20113;-72
2023/06/21 03:21:56;;;;;;;33.72;20.00;;;;;;;;;;5095244;28;20047;-72
2023/06/21 03:24:22;;;;;;;29.63;18.27;;;;;;;;;;5086432;28;20040;-71
2023/06/21 03:26:48;;;;;;;32.53;18.90;;;;;;;;;;5072694;28;20047;-71
2023/06/21 03:29:14;;;;;;;31.38;19.50;;;;;;;;;;5087884;28;20415;-72
2023/06/21 03:31:40;;;;;;;30.95;18.83;;;17.90;99.90;;;;;;5085537;28;20123;-72
2023/06/21 03:34:06;;;;;;;30.08;17.90;;;;;;;;;;5088868;28;20519;-72
2023/06/21 03:36:32;;;;;;;34.97;19.38;;;;;;;;;;5091315;28;20085;-71
2023/06/21 03:38:58;;;;;;;30.90;18.02;;;;;;;;;;5094091;28;20066;-71
2023/06/21 03:41:24;;;;;;;34.95;18.55;;;18.80;99.90;;;;;;5090757;28;20055;-71
2023/06/21 03:43:50;;;;;;;36.00;18.10;;;;;;;;;;5091590;28;20036;-72
2023/06/21 03:46:18;;;;;;;29.77;17.38;;;;;;;;;;5090389;28;20039;-72
2023/06/21 03:48:44;;;;;;;31.10;17.27;;;;;;;;;;5081292;28;20456;-72
2023/06/21 03:51:10;;;;;;;27.02;16.33;;;;;;;;;;5082939;28;20123;-72
2023/06/21 03:53:36;;;;;;;30.85;16.50;;;17.50;99.90;;;;;;5080877;28;20476;-76
2023/06/21 03:56:02;;;;;;;30.50;16.08;;;;;;;;;;5085235;28;21229;-72
2023/06/21 03:58:28;;;;;;;26.55;15.43;;;;;;;;;;5077455;28;20403;-72
2023/06/21 04:00:54;;;;;;;31.35;16.50;;;;;;;;;;5079675;28;20040;-72
2023/06/21 04:03:19;;;;;;;24.48;15.15;;;19.90;99.90;;;;;;5070253;28;20049;-72
2023/06/21 04:05:45;;;;;;;35.40;15.85;;;;;;;;;;5062524;28;20066;-73
2023/06/21 04:08:11;;;;;;;28.02;15.05;;;;;;;;;;5087821;28;20085;-72
2023/06/21 04:10:38;;;;;;;31.17;15.48;;;;;;;;;;5084137;28;20120;-72
2023/06/21 04:13:03;;;;;;;25.00;14.82;;;18.60;99.90;;;;;;5077630;28;20562;-72
2023/06/21 04:15:30;;;;;;;29.67;15.70;;;;;;;;;;5073256;28;20048;-72
2023/06/21 04:17:55;;;;;;;31.02;14.57;;;19.70;99.90;;;;;;5062519;28;20036;-72
2023/06/21 04:20:21;;;;;;;28.58;15.00;;;;;;;;;;5079378;28;20503;-74
2023/06/21 04:22:47;;;;;;;28.70;13.75;;;19.70;99.90;;;;;;5057662;28;20047;-74
2023/06/21 04:25:13;;;;;;;28.50;13.63;;;;;;;;;;5076075;28;20043;-73
2023/06/21 04:27:45;;;;;;;27.52;14.30;;;19.10;99.90;;;;;;5079099;28;20032;-74
2023/06/21 04:30:11;;;;;;;24.23;13.30;;;17.60;99.90;;;;;;5065389;28;20032;-73
2023/06/21 04:32:44;;;;;;;28.83;13.35;;;17.50;99.90;;;;;;5078929;28;20036;-73
2023/06/21 04:35:14;;;;;;;22.70;12.57;;;17.40;99.90;;;;;;5074540;28;20048;-73
2023/06/21 04:37:44;;;;;;;24.75;13.07;;;18.80;99.90;;;;;;5074449;28;20056;-73
2023/06/21 04:40:15;;;;;;;26.25;12.85;;;19.70;99.90;;;;;;5075691;28;20527;-71
2023/06/21 04:42:42;;;;;;;21.45;12.80;;;17.60;99.90;;;;;;5074582;28;20412;-71
2023/06/21 04:45:16;;;;;;;25.83;12.25;;;19.40;99.90;;;;;;5057827;28;20382;-71
2023/06/21 04:47:42;;;;;;;24.60;12.85;;;18.50;99.90;;;;;;5083180;28;20040;-71
2023/06/21 04:50:10;;;;;;;26.60;13.38;;;18.70;99.90;;;;;;5075391;28;20099;-73
2023/06/21 04:52:39;;;;;;;22.17;12.95;;;;;;;;;;5078987;28;20119;-73
2023/06/21 04:55:05;;;;;;;37.85;13.77;;;19.60;99.90;;;;;;5065257;28;20110;-73
2023/06/21 04:57:32;;;;;;;26.15;13.23;;;19.70;99.90;;;;;;5062075;28;20131;-73
2023/06/21 04:59:57;;;;;;;29.45;12.65;;;17.40;99.90;;;;;;5093869;28;20424;-73
2023/06/21 05:02:24;;;;;;;21.70;13.55;;;18.60;99.90;;;;;;5086770;28;20131;-73
2023/06/21 05:04:50;;;;;;;25.77;13.20;;;19.20;99.90;;;;;;5074367;28;20040;-73
2023/06/21 05:07:16;;;;;;;24.85;12.45;;;;;;;;;;5080342;28;20035;-73
2023/06/21 05:09:43;;;;;;;25.77;13.50;;;19.30;99.90;;;;;;5077289;28;20062;-73
2023/06/21 05:12:09;;;;;;;23.52;13.60;;;18.30;99.90;;;;;;5056967;28;20086;-73
2023/06/21 05:14:35;;;;;;;21.05;13.50;;;17.60;99.90;;;;;;5040691;28;20045;-72
2023/06/21 05:17:01;;;;;;;24.30;13.75;;;;;;;;;;5077274;28;20047;-73
2023/06/21 05:19:27;;;;;;;26.70;13.90;;;18.80;99.90;;;;;;5089239;28;20036;-73
2023/06/21 05:21:53;;;;;;;24.48;15.48;;;;;;;;;;5075860;28;20132;-73
2023/06/21 05:24:18;;;;;;;23.55;14.68;;;17.70;99.90;;;;;;5064478;28;20052;-73
2023/06/21 05:26:44;;;;;;;26.80;14.60;;;17.70;99.90;;;;;;5075376;28;20040;-73
2023/06/21 05:29:13;;;;;;;25.48;15.18;;;18.60;99.90;;;;;;5084780;28;20115;-74
2023/06/21 05:31:43;;;;;;;31.15;17.10;;;19.80;99.90;;;;;;5077976;28;20444;-74
2023/06/21 05:34:10;;;;;;;28.33;17.08;;;17.80;99.90;;;;;;5091343;28;20035;-74
2023/06/21 05:36:35;;;;;;;30.30;16.92;;;19.20;99.90;;;;;;5073597;28;20126;-74
2023/06/21 05:39:02;;;;;;;26.02;17.70;;;19.70;99.90;;;;;;5058622;28;20036;-74
2023/06/21 05:41:28;;;;;;;36.50;18.98;;;;;;;;;;5093142;28;20114;-74
2023/06/21 05:43:54;;;;;;;34.88;18.38;;;;;;;;;;5085346;28;20067;-74
2023/06/21 05:46:20;;;;;;;28.52;17.40;;;;;;;;;;5092237;28;20051;-73
2023/06/21 05:48:46;;;;;;;30.65;18.58;;;19.60;99.90;;;;;;5076978;28;20037;-73
2023/06/21 05:51:12;;;;;;;23.83;16.08;;;;;;;;;;5087117;28;20381;-73
2023/06/21 05:53:38;;;;;;;25.15;15.50;;;;;;;;;;5080668;28;20473;-73
2023/06/21 05:56:04;;;;;;;27.35;15.90;;;19.70;99.90;;;;;;5078635;28;20047;-73
2023/06/21 05:58:30;;;;;;;25.95;16.20;;;;;;;;;;5073151;28;20048;-74
2023/06/21 06:00:56;;;;;;;28.17;15.32;;;17.90;99.90;;;;;;5054679;28;20051;-73
2023/06/21 06:03:22;;;;;;;23.67;14.68;;;;;;;;;;5041108;28;20039;-73
2023/06/21 06:05:49;;;;;;;22.73;14.45;;;;;;;;;;5074369;28;20048;-73
2023/06/21 06:08:15;;;;;;;22.08;13.60;;;19.10;99.90;;;;;;5087811;28;20519;-73
2023/06/21 06:10:42;;;;;;;22.33;13.80;;;20.00;99.90;;;;;;5077449;28;20040;-73
2023/06/21 06:13:07;;;;;;;22.33;13.70;;;18.10;99.90;;;;;;5092547;28;20048;-73
2023/06/21 06:15:33;;;;;;;24.92;13.23;;;20.10;99.90;;;;;;5075163;28;20044;-73
2023/06/21 06:17:59;;;;;;;24.40;12.90;;;;;;;;;;5067875;28;20047;-73
2023/06/21 06:20:26;;;;;;;25.40;12.65;;;;;;;;;;5092554;28;20048;-74
2023/06/21 06:22:52;;;;;;;22.17;13.10;;;19.70;99.90;;;;;;5055943;28;20167;-73
2023/06/21 06:25:18;;;;;;;24.98;12.70;;;;;;;;;;5072932;28;20127;-73
2023/06/21 06:27:44;;;;;;;21.50;12.13;;;20.00;99.90;;;;;;5072162;28;20484;-73
2023/06/21 06:30:11;;;;;;;20.90;11.85;;;18.40;99.90;;;;;;5084392;28;20131;-73
2023/06/21 06:32:37;;;;;;;19.65;11.13;;;20.20;99.90;;;;;;5070289;28;20043;-73
2023/06/21 06:35:04;;;;;;;19.20;11.18;;;;;;;;;;5074565;28;20036;-72
2023/06/21 06:37:30;;;;;;;18.65;10.45;;;;;;;;;;5039238;28;20048;-73
2023/06/21 06:39:55;;;;;;;17.33;11.13;;;18.90;99.90;;;;;;5072260;28;20076;-73
2023/06/21 06:42:22;;;;;;;17.73;11.25;;;;;;;;;;5087435;28;20086;-73
2023/06/21 06:44:48;;;;;;;20.67;11.00;;;;;;;;;;5090920;28;20352;-73
2023/06/21 06:47:14;;;;;;;15.85;10.32;;;20.30;99.90;;;;;;5092175;28;20044;-73
2023/06/21 06:49:39;;;;;;;19.83;10.70;;;19.70;99.90;;;;;;5086147;28;20115;-73
2023/06/21 06:52:06;;;;;;;17.55;10.77;;;19.90;99.90;;;;;;5084927;28;20036;-73
2023/06/21 06:54:32;;;;;;;17.38;11.32;;;19.30;99.90;;;;;;5061437;28;20098;-73
2023/06/21 06:56:58;;;;;;;17.92;11.07;;;;;;;;;;5075721;28;20056;-73
2023/06/21 06:59:24;;;;;;;20.95;11.43;;;;;;;;;;5074293;28;20043;-73
2023/06/21 07:01:51;;;;;;;17.42;11.60;;;;;;;;;;5055500;28;20074;-73
2023/06/21 07:04:16;;;;;;;17.10;11.40;;;20.40;99.90;;;;;;5055292;28;20040;-73
2023/06/21 07:06:42;;;;;;;15.90;9.90;;;20.50;99.90;;;;;;5091613;28;20516;-71
2023/06/21 07:09:08;;;;;;;13.93;9.23;;;;;;;;;;5075293;28;20040;-71
2023/06/21 07:11:35;;;;;;;15.63;9.23;;;20.00;99.90;;;;;;5072370;28;20063;-72
2023/06/21 07:14:01;;;;;;;14.45;8.60;;;19.40;99.90;;;;;;5071741;28;20145;-71
2023/06/21 07:16:33;;;;;;;11.95;9.13;;;20.10;99.90;;;;;;5087971;28;20040;-71
2023/06/21 07:18:58;;;;;;;;;;;20.00;99.90;;;;;;5093548;28;20403;-68
2023/06/21 07:21:27;;;;;;;11.98;7.82;;;;;;;;;;5089857;28;19916;-69
2023/06/21 07:23:53;;;;;;;15.88;8.30;;;19.80;99.90;;;;;;5092155;28;20404;-69
2023/06/21 07:26:19;;;;;;;13.85;7.00;;;;;;;;;;5054605;28;20041;-68
2023/06/21 07:28:44;;;;;;;10.98;7.45;;;20.60;99.90;;;;;;5055276;28;20044;-68
2023/06/21 07:31:11;;;;;;;13.65;8.05;;;;;;;;;;5083827;28;20044;-73
2023/06/21 07:33:37;;;;;;;11.75;6.97;;;19.30;99.90;;;;;;5091635;28;20043;-70
2023/06/21 07:36:03;;;;;;;12.63;7.07;;;19.20;99.90;;;;;;5064720;28;20032;-70
2023/06/21 07:38:29;;;;;;;13.00;7.28;;;20.70;99.90;;;;;;5091235;28;20112;-69
2023/06/21 07:40:55;;;;;;;15.95;7.90;;;20.80;99.90;;;;;;5063084;28;20484;-70
2023/06/21 07:43:20;;;;;;;59.17;52.25;;;19.70;99.90;;;;;;5073517;28;20093;-70
2023/06/21 07:45:48;;;;;;;46.63;40.42;;;;;;;;;;5061446;28;20039;-70
2023/06/21 07:48:14;;;;;;;22.67;12.02;;;;;;;;;;5091670;28;20404;-70
2023/06/21 07:50:40;;;;;;;11.45;7.40;;;19.30;99.90;;;;;;5078806;28;20040;-70
2023/06/21 07:53:06;;;;;;;14.48;9.00;;;21.10;99.90;;;;;;5088034;28;20511;-70
2023/06/21 07:55:32;;;;;;;10.82;6.50;;;;;;;;;;5075555;28;20403;-69
2023/06/21 07:57:58;;;;;;;10.43;6.30;;;20.00;99.90;;;;;;5077919;28;20051;-69
2023/06/21 08:00:24;;;;;;;10.75;6.93;;;;;;;;;;5093041;28;20047;-69
2023/06/21 08:02:51;;;;;;;12.60;7.30;;;21.40;99.90;;;;;;5094649;28;20052;-69
2023/06/21 08:05:18;;;;;;;12.88;6.97;;;19.60;99.90;;;;;;5082258;28;20048;-69
2023/06/21 08:07:44;;;;;;;10.52;6.72;;;21.40;99.90;;;;;;5076123;28;20127;-69
2023/06/21 08:10:10;;;;;;;9.25;6.22;;;21.00;99.90;;;;;;5076001;28;20083;-69
2023/06/21 08:12:36;;;;;;;12.30;6.47;;;20.30;99.90;;;;;;5060148;28;20059;-73
2023/06/21 08:15:02;;;;;;;12.68;7.68;;;;;;;;;;5049223;28;20044;-72
2023/06/21 08:17:28;;;;;;;12.32;7.97;;;21.50;99.90;;;;;;5076019;28;20075;-72
2023/06/21 08:19:54;;;;;;;9.93;7.18;;;;;;;;;;5091108;28;20067;-72
2023/06/21 08:22:21;;;;;;;13.75;6.68;;;21.70;99.90;;;;;;5087678;28;20081;-72
2023/06/21 08:24:47;;;;;;;10.45;6.65;;;21.70;99.90;;;;;;5075182;28;20032;-72
2023/06/21 08:27:14;;;;;;;14.60;6.88;;;20.70;99.90;;;;;;5072116;28;20071;-72
2023/06/21 08:29:40;;;;;;;11.73;6.90;;;21.40;99.90;;;;;;5064080;28;20040;-72
2023/06/21 08:32:06;;;;;;;11.43;7.85;;;;;;;;;;5086957;28;20085;-72
2023/06/21 08:34:32;;;;;;;11.80;7.10;;;21.90;99.90;;;;;;5075842;28;20488;-72
2023/06/21 08:36:58;;;;;;;12.45;7.20;;;;;;;;;;5077618;28;20054;-72
2023/06/21 08:39:23;;;;;;;13.38;7.20;;;21.50;99.90;;;;;;5093053;28;20050;-72
2023/06/21 08:41:49;;;;;;;10.85;7.40;;;20.70;99.90;;;;;;5085306;28;20048;-72
2023/06/21 08:44:15;;;;;;;11.20;7.15;;;21.60;99.90;;;;;;5092106;28;20040;-72
2023/06/21 08:46:42;;;;;;;11.25;7.25;;;21.50;99.90;;;;;;5077090;28;20126;-72
2023/06/21 08:49:13;;;;;;;13.50;7.53;;;21.90;99.90;;;;;;5079147;28;20036;-72
2023/06/21 08:51:40;;;;;;;11.13;7.20;;;21.40;99.90;;;;;;5081350;28;20040;-71
2023/06/21 08:54:08;;;;;;;14.50;7.13;;;21.90;99.90;;;;;;5087338;28;20084;-73
2023/06/21 08:56:43;;;;;;;12.88;7.32;;;22.10;99.90;;;;;;5093833;28;20048;-73
2023/06/21 08:59:17;;;;;;;14.98;7.80;;;22.40;99.90;;;;;;5062515;28;20053;-73
2023/06/21 09:02:01;;;;;;;10.07;7.32;;;22.00;99.90;;;;;;5080027;28;20111;-72
2023/06/21 09:04:29;;;;;;;13.60;7.38;;;22.10;99.90;;;;;;5071773;28;20067;-74
2023/06/21 09:06:56;;;;;;;11.95;7.07;;;22.50;99.90;;;;;;5074637;28;20097;-72
2023/06/21 09:09:26;;;;;;;11.48;7.35;;;22.00;99.90;;;;;;5074251;28;20041;-73
2023/06/21 09:11:55;;;;;;;10.30;6.72;;;22.50;99.90;;;;;;5074249;28;20052;-70
2023/06/21 09:14:22;;;;;;;10.85;6.85;;;21.40;99.90;;;;;;5093067;28;20059;-72
2023/06/21 09:16:48;;;;;;;12.55;7.15;;;23.20;99.90;;;;;;5093336;28;20050;-72
2023/06/21 09:19:15;;;;;;;11.55;6.93;;;22.00;99.90;;;;;;5070188;28;20131;-72
2023/06/21 09:21:42;;;;;;;11.88;7.70;;;22.80;99.40;;;;;;5065792;28;20502;-77
2023/06/21 09:24:08;;;;;;;13.32;6.93;;;22.40;99.90;;;;;;5080263;28;20485;-74
2023/06/21 09:26:36;;;;;;;14.50;7.93;;;23.20;99.90;;;;;;5074439;28;20126;-74
2023/06/21 09:29:02;;;;;;;10.00;6.60;;;23.20;99.90;;;;;;5094720;28;20093;-74
2023/06/21 09:31:28;;;;;;;13.77;6.60;;;23.20;99.90;;;;;;5081081;28;20542;-74
2023/06/21 09:33:56;;;;;;;11.13;6.60;;;;;;;;;;5088956;28;20036;-74
2023/06/21 09:36:22;;;;;;;9.40;6.13;;;;;;;;;;5058827;28;20130;-74
2023/06/21 09:38:48;;;;;;;10.68;6.82;;;23.30;99.90;;;;;;5056925;28;20040;-74
2023/06/21 09:41:13;;;;;;;8.95;6.78;;;23.70;99.90;;;;;;5072584;28;20405;-74
2023/06/21 09:43:43;;;;;;;10.07;6.93;;;23.50;99.90;;;;;;5072873;28;20087;-72
2023/06/21 09:46:11;;;;;;;11.20;7.00;;;23.70;99.90;;;;;;5056522;28;20044;-71
2023/06/21 09:48:38;;;;;;;10.05;6.68;;;23.30;99.90;;;;;;5073155;28;20122;-72
2023/06/21 09:51:10;;;;;;;10.38;6.63;;;24.10;99.90;;;;;;5073195;28;20045;-72
2023/06/21 09:53:36;;;;;;;12.93;8.15;;;23.90;99.90;;;;;;5073181;28;20127;-72
2023/06/21 09:56:02;;;;;;;12.63;7.35;;;24.40;99.90;;;;;;5073226;28;20072;-72
2023/06/21 09:58:33;;;;;;;10.10;6.47;;;24.50;99.90;;;;;;5073046;28;20056;-72
2023/06/21 10:00:59;;;;;;;10.68;6.60;;;23.90;99.90;;;;;;5073016;28;20488;-71
2023/06/21 10:03:25;;;;;;;12.25;7.32;;;23.40;99.90;;;;;;5073252;28;20098;-71
2023/06/21 10:05:55;;;;;;;11.48;6.72;;;23.70;99.90;;;;;;5073181;28;20044;-71
2023/06/21 10:08:28;;;;;;;9.82;5.50;;;24.30;99.90;;;;;;5072812;28;20128;-71
2023/06/21 10:10:55;;;;;;;11.75;6.65;;;23.90;99.90;;;;;;5072981;28;20437;-71
2023/06/21 10:13:28;;;;;;;10.68;6.15;;;24.00;95.20;;;;;;5072519;28;20054;-71
2023/06/21 10:15:55;;;;;;;10.55;6.15;;;23.70;99.90;;;;;;5039818;28;20499;-71
2023/06/21 10:18:22;;;;;;;8.80;5.60;;;24.70;99.60;;;;;;5072036;28;20045;-71
2023/06/21 10:21:03;;;;;;;12.35;7.57;;;24.40;98.70;;;;;;5072177;28;20040;-71
2023/06/21 10:23:34;;;;;;;13.10;7.85;;;25.30;99.10;;;;;;5055841;28;20495;-72
2023/06/21 10:26:05;;;;;;;12.48;7.95;;;25.30;98.50;;;;;;5072699;28;20441;-71
2023/06/21 10:28:39;;;;;;;16.42;10.23;;;25.60;98.30;;;;;;5072617;28;20097;-72
2023/06/21 10:31:08;;;;;;;13.48;8.40;;;25.30;98.60;;;;;;5072544;28;20040;-71
2023/06/21 10:33:36;;;;;;;15.98;8.30;;;24.60;98.60;;;;;;5072655;28;20052;-71
2023/06/21 10:36:03;;;;;;;17.98;9.32;;;25.00;98.80;;;;;;5072282;28;20044;-71
2023/06/21 10:38:49;;;;;;;14.85;9.25;;;24.80;93.80;;;;;;5072257;28;20400;-71
2023/06/21 10:41:15;;;;;;;17.00;11.30;;;25.00;97.60;;;;;;5072697;28;20048;-71
2023/06/21 10:43:42;;;;;;;15.05;9.13;;;25.20;98.40;;;;;;5072036;28;20377;-71
2023/06/21 10:46:10;;;;;;;13.85;9.35;;;25.00;98.20;;;;;;5072469;28;20075;-71
2023/06/21 10:48:36;;;;;;;17.42;10.90;;;24.30;97.70;;;;;;5072161;28;20500;-72
2023/06/21 10:51:04;;;;;;;17.67;11.65;;;26.20;94.30;;;;;;5072089;28;20136;-72
2023/06/21 10:53:34;;;;;;;20.75;11.55;;;25.20;97.80;;;;;;5072232;28;20059;-71
2023/06/21 10:56:16;;;;;;;14.20;11.00;;;25.70;97.80;;;;;;5055396;28;20047;-71
2023/06/21 10:58:42;;;;;;;;;;;25.30;94.40;;;;;;5072620;28;20047;-71
2023/06/21 11:01:08;;;;;;;17.67;11.82;;;25.90;96.60;;;;;;5071888;28;19924;-72
2023/06/21 11:03:34;;;;;;;23.13;16.67;;;;;;;;;;5071869;28;20049;-71
2023/06/21 11:06:23;;;;;;;23.65;14.15;;;25.70;96.00;;;;;;5071901;28;20516;-71
2023/06/21 11:08:49;;;;;;;16.27;12.45;;;25.60;97.60;;;;;;5071911;28;20048;-72
2023/06/21 11:11:29;;;;;;;18.17;12.10;;;26.10;96.40;;;;;;5071890;28;20036;-72
2023/06/21 11:13:55;;;;;;;18.05;12.07;;;25.90;96.30;;;;;;5054921;28;20530;-72
2023/06/21 11:16:25;;;;;;;17.05;12.48;;;25.40;93.00;;;;;;5055406;28;20182;-71
2023/06/21 11:18:55;;;;;;;24.13;15.15;;;25.50;95.80;;;;;;5071815;28;20051;-71
2023/06/21 11:21:53;;;;;;;22.50;14.52;;;24.60;95.60;;;;;;5054820;28;20428;-71
2023/06/21 11:24:22;;;;;;;18.27;14.20;;;25.30;92.40;;;;;;5017661;28;20068;-71
2023/06/21 11:27:02;;;;;;;19.27;13.75;;;25.90;96.50;;;;;;5071646;28;20051;-71
2023/06/21 11:29:37;;;;;;;20.65;14.45;;;26.20;96.50;;;;;;5072137;28;20051;-71
2023/06/21 11:32:15;;;;;;;16.10;11.18;;;25.60;96.20;;;;;;5075254;28;20040;-71
2023/06/21 11:34:53;;;;;;;18.30;14.20;;;25.80;95.80;;;;;;5075537;28;20032;-71
2023/06/21 11:37:41;;;;;;;18.15;11.65;;;25.90;90.30;;;;;;5058908;28;20123;-71
2023/06/21 11:40:09;;;;;;;14.00;9.00;;;26.60;93.10;;;;;;5075483;28;20508;-71
2023/06/21 11:42:44;;;;;;;20.33;13.43;;;26.50;95.20;;;;;;5075419;28;20465;-71
2023/06/21 11:45:15;;;;;;;16.08;10.00;;;26.50;95.20;;;;;;5075713;28;20086;-71
2023/06/21 11:47:56;;;;;;;;;;;26.10;91.70;;;;;;5075993;28;20090;-71
2023/06/21 11:50:34;;;;;;;12.23;8.40;;;26.60;95.30;;;;;;5075745;28;19939;-71
2023/06/21 11:53:17;;;;;;;25.70;16.45;;;26.00;90.30;;;;;;5058709;28;20515;-71
2023/06/21 11:55:43;;;;;;;24.05;14.70;;;26.00;95.80;;;;;;5075323;28;20044;-72
2023/06/21 11:58:10;;;;;;;22.77;13.75;;;26.30;96.40;;;;;;5058790;28;20044;-72
2023/06/21 12:00:36;;;;;;;22.92;15.00;;;26.50;96.60;;;;;;5075521;28;20051;-72
2023/06/21 12:03:08;;;;;;;24.30;14.52;;;26.50;96.60;;;;;;5075100;28;20048;-72
2023/06/21 12:06:06;;;;;;;27.65;16.52;;;26.30;91.50;;;;;;5058617;28;20127;-72
2023/06/21 12:08:34;;;;;;;29.00;16.92;;;26.20;96.30;;;;;;5021226;28;20054;-72
2023/06/21 12:11:04;;;;;;;25.05;16.08;;;26.30;96.40;;;;;;5075127;28;20047;-72
2023/06/21 12:13:31;;;;;;;27.17;15.60;;;26.50;92.80;;;;;;5074781;28;20110;-72
2023/06/21 12:16:05;;;;;;;26.33;15.73;;;26.00;96.30;;;;;;5075179;28;20117;-72
2023/06/21 12:18:33;;;;;;;23.20;15.40;;;26.30;96.20;;;;;;5058216;28;20048;-72
2023/06/21 12:21:00;;;;;;;29.58;16.23;;;26.80;96.40;;;;;;5074861;28;20385;-72
2023/06/21 12:23:28;;;;;;;27.95;15.98;;;26.60;96.40;;;;;;5074680;28;20040;-72
2023/06/21 12:26:00;;;;;;;23.48;14.48;;;27.00;96.20;;;;;;5074672;28;20454;-72
2023/06/21 12:28:26;;;;;;;22.75;14.57;;;26.20;95.90;;;;;;5058021;28;20040;-72
2023/06/21 12:31:01;;;;;;;25.75;16.90;;;26.50;90.90;;;;;;5057948;28;20059;-72
2023/06/21 12:33:31;;;;;;;26.38;15.50;;;26.00;95.70;;;;;;5074725;28;20037;-72
2023/06/21 12:36:16;;;;;;;27.40;16.42;;;26.60;93.60;;;;;;5058135;28;20052;-72
2023/06/21 12:38:50;;;;;;;23.83;15.60;;;25.60;95.80;;;;;;5074717;28;20079;-72
2023/06/21 12:41:18;;;;;;;27.23;14.88;;;26.30;96.50;;;;;;5074432;28;20520;-72
2023/06/21 12:43:46;;;;;;;24.52;13.05;;;25.90;96.00;;;;;;5073424;28;20044;-72
2023/06/21 12:46:12;;;;;;;22.13;13.85;;;;;;;;;;5074576;28;20045;-72
2023/06/21 12:48:51;;;;;;;21.88;13.35;;;26.00;95.40;;;;;;5057640;28;20033;-72
2023/06/21 12:51:20;;;;;;;19.73;11.95;;;26.40;94.00;;;;;;5074287;28;20044;-72
2023/06/21 12:53:46;;;;;;;23.60;11.43;;;26.70;95.70;;;;;;5057448;28;20048;-71
2023/06/21 12:56:13;;;;;;;18.55;9.80;;;26.80;95.50;;;;;;5074413;28;20045;-74
2023/06/21 12:58:39;;;;;;;17.38;9.40;;;26.60;95.40;;;;;;5057727;28;20044;-74